Time;durP1;ratioP1;P1;durP2;ratioP2;P2;SDS_P1;SDS_P2;PMS_P1;PMS_P2;Temp;Humidity;BMP_temperature;BMP_pressure;BME280_temperature;BME280_humidity;BME280_pressure;Samples;Min_cycle;Max_cycle;Signal;HPM_P1;HPM_P2
2024/03/20 00:02:20;;;;;;;13.20;7.70;;;;;;;;;;5035729;28;20033;-54
2024/03/20 00:04:46;;;;;;;13.27;7.97;;;;;;;;;;5045315;28;20039;-55
2024/03/20 00:07:12;;;;;;;13.38;7.90;;;;;;;;;;5045432;28;20021;-53
2024/03/20 00:09:38;;;;;;;13.38;8.00;;;;;;;;;;5046458;28;20509;-55
2024/03/20 00:12:06;;;;;;;13.32;7.90;;;;;;;;;;5046432;28;20024;-55
2024/03/20 00:14:32;;;;;;;13.32;8.00;;;;;;;;;;5046376;28;20017;-54
2024/03/20 00:16:59;;;;;;;13.40;8.30;;;;;;;;;;5046875;28;20029;-55
2024/03/20 00:19:25;;;;;;;13.43;8.15;;;;;;;;;;5046446;28;20103;-56
2024/03/20 00:21:51;;;;;;;13.55;8.45;;;;;;;;;;5046625;28;20422;-52
2024/03/20 00:24:17;;;;;;;13.57;8.50;;;;;;;;;;5046368;28;20100;-52
2024/03/20 00:26:43;;;;;;;13.60;8.73;;;;;;;;;;5046917;28;20033;-57
2024/03/20 00:29:10;;;;;;;13.50;8.38;;;;;;;;;;5047167;28;20025;-55
2024/03/20 00:31:36;;;;;;;13.50;8.32;;;;;;;;;;5093262;22;20048;-54
2024/03/20 00:34:02;;;;;;;13.50;8.45;;;;;;;;;;5089359;28;20036;-56
2024/03/20 00:36:31;;;;;;;13.60;8.70;;;;;;;;;;5071341;28;20028;-56
2024/03/20 00:38:56;;;;;;;;;;;;;;;;;;5072370;28;20052;-53
2024/03/20 00:41:22;;;;;;;13.43;8.32;;;;;;;;;;5089783;28;19946;-57
2024/03/20 00:43:48;;;;;;;13.63;8.70;;;;;;;;;;5089393;28;20028;-52
2024/03/20 00:46:14;;;;;;;13.52;8.52;;;;;;;;;;5071637;28;20035;-53
2024/03/20 00:48:41;;;;;;;13.52;8.55;;;;;;;;;;5090324;28;20028;-56
2024/03/20 00:51:07;;;;;;;13.50;8.50;;;;;;;;;;5090448;28;20035;-54
2024/03/20 00:53:33;;;;;;;13.60;8.70;;;;;;;;;;5090017;28;20020;-58
2024/03/20 00:55:59;;;;;;;13.60;8.60;;;;;;;;;;5090418;28;20082;-56
2024/03/20 00:58:25;;;;;;;13.68;8.95;;;;;;;;;;5072255;28;20085;-55
2024/03/20 01:00:51;;;;;;;13.48;8.50;;;;;;;;;;5072249;28;20031;-54
2024/03/20 01:03:17;;;;;;;13.60;8.65;;;;;;;;;;5089980;28;20028;-57
2024/03/20 01:05:44;;;;;;;13.65;8.85;;;;;;;;;;5071538;28;20028;-52
2024/03/20 01:08:10;;;;;;;13.70;8.98;;;;;;;;;;5090169;28;20409;-54
2024/03/20 01:10:36;;;;;;;13.70;8.95;;;;;;;;;;5090455;28;20024;-53
2024/03/20 01:13:03;;;;;;;13.68;8.90;;;;;;;;;;5089910;28;20028;-55
2024/03/20 01:15:29;;;;;;;13.65;8.80;;;;;;;;;;5090518;28;20028;-56
2024/03/20 01:17:56;;;;;;;13.55;8.57;;;;;;;;;;5090345;28;20028;-55
2024/03/20 01:20:22;;;;;;;13.60;8.65;;;;;;;;;;5090054;28;20028;-54
2024/03/20 01:22:48;;;;;;;13.60;8.60;;;;;;;;;;5089675;28;20024;-54
2024/03/20 01:25:14;;;;;;;13.57;8.60;;;;;;;;;;5071947;28;20028;-55
2024/03/20 01:27:40;;;;;;;13.40;8.10;;;;;;;;;;5090254;28;20082;-54
2024/03/20 01:30:06;;;;;;;13.43;8.20;;;;;;;;;;5090010;28;20024;-56
2024/03/20 01:32:32;;;;;;;13.50;8.25;;;;;;;;;;5089309;28;20063;-55
2024/03/20 01:34:58;;;;;;;13.55;8.43;;;;;;;;;;5089091;28;20028;-54
2024/03/20 01:37:24;;;;;;;13.60;8.73;;;;;;;;;;5089859;28;20375;-55
2024/03/20 01:39:50;;;;;;;13.60;8.70;;;;;;;;;;5089923;28;20039;-58
2024/03/20 01:42:16;;;;;;;13.50;8.40;;;;;;;;;;5090747;28;20107;-54
2024/03/20 01:44:42;;;;;;;13.52;8.50;;;;;;;;;;5093234;28;20512;-56
2024/03/20 01:47:08;;;;;;;13.52;8.60;;;;;;;;;;5093671;28;20024;-57
2024/03/20 01:49:35;;;;;;;13.45;8.25;;;;;;;;;;5093207;28;20024;-53
2024/03/20 01:52:01;;;;;;;13.50;8.40;;;;;;;;;;5074778;28;20433;-57
2024/03/20 01:54:28;;;;;;;13.48;8.45;;;;;;;;;;5092860;28;20500;-53
2024/03/20 01:56:54;;;;;;;13.57;8.43;;;;;;;;;;5093236;28;20032;-55
2024/03/20 01:59:20;;;;;;;13.48;8.23;;;;;;;;;;5093052;28;20104;-55
2024/03/20 02:01:46;;;;;;;13.38;8.20;;;;;;;;;;5092727;28;20036;-55
2024/03/20 02:04:12;;;;;;;13.43;8.10;;;;;;;;;;5074548;28;20345;-54
2024/03/20 02:06:38;;;;;;;13.40;8.13;;;;;;;;;;5093008;28;20116;-52
2024/03/20 02:09:05;;;;;;;13.45;8.10;;;;;;;;;;5092935;28;20058;-55
2024/03/20 02:11:31;;;;;;;13.45;8.30;;;;;;;;;;5092500;28;20020;-54
2024/03/20 02:13:57;;;;;;;13.55;8.40;;;;;;;;;;5092357;28;20027;-53
2024/03/20 02:16:25;;;;;;;13.60;8.68;;;;;;;;;;5093385;28;20478;-55
2024/03/20 02:18:51;;;;;;;13.63;8.65;;;;;;;;;;5093705;28;20020;-51
2024/03/20 02:21:18;;;;;;;13.55;8.48;;;;;;;;;;5074378;28;20145;-53
2024/03/20 02:23:44;;;;;;;13.45;8.35;;;;;;;;;;5092604;28;20024;-54
2024/03/20 02:26:10;;;;;;;13.60;8.68;;;;;;;;;;5074747;28;20172;-49
2024/03/20 02:28:40;;;;;;;13.45;8.23;;;;;;;;;;5092464;28;20020;-56
2024/03/20 02:31:07;;;;;;;13.43;8.02;;;;;;;;;;5073932;28;20146;-57
2024/03/20 02:33:33;;;;;;;13.23;8.10;;;;;;;;;;5091924;28;20107;-57
2024/03/20 02:35:59;;;;;;;13.52;8.35;;;;;;;;;;5092388;28;20105;-54
2024/03/20 02:38:26;;;;;;;13.50;8.30;;;;;;;;;;5074300;28;20465;-55
2024/03/20 02:40:54;;;;;;;13.45;8.27;;;;;;;;;;5092241;28;20068;-53
2024/03/20 02:43:20;;;;;;;13.52;8.40;;;;;;;;;;5073680;28;20081;-55
2024/03/20 02:45:46;;;;;;;13.48;8.30;;;;;;;;;;5092446;28;20024;-54
2024/03/20 02:48:13;;;;;;;13.35;7.97;;;;;;;;;;5092497;28;20371;-55
2024/03/20 02:50:39;;;;;;;13.38;8.00;;;;;;;;;;5092250;28;20036;-54
2024/03/20 02:53:05;;;;;;;13.25;7.90;;;;;;;;;;5091668;28;20030;-55
2024/03/20 02:55:35;;;;;;;13.10;7.70;;;;;;;;;;5091887;28;20048;-53
2024/03/20 02:58:01;;;;;;;13.45;8.25;;;;;;;;;;5074378;28;20435;-51
2024/03/20 03:00:28;;;;;;;13.50;8.38;;;;;;;;;;5074305;28;20626;-52
2024/03/20 03:02:54;;;;;;;13.38;8.00;;;;;;;;;;5091640;28;20475;-55
2024/03/20 03:05:24;;;;;;;13.35;7.97;;;;;;;;;;5092321;28;20027;-53
2024/03/20 03:07:51;;;;;;;13.50;8.30;;;;;;;;;;5074198;28;20127;-53
2024/03/20 03:10:17;;;;;;;13.70;9.07;;;;;;;;;;5074142;28;20036;-57
2024/03/20 03:12:43;;;;;;;13.43;8.13;;;;;;;;;;5092065;28;20074;-55
2024/03/20 03:15:10;;;;;;;13.32;8.10;;;;;;;;;;5093945;28;20401;-53
2024/03/20 03:17:40;;;;;;;13.40;8.07;;;;;;;;;;5092962;28;20024;-53
2024/03/20 03:20:13;;;;;;;13.50;8.23;;;;;;;;;;5074567;28;20024;-54
2024/03/20 03:22:39;;;;;;;13.20;7.70;;;;;;;;;;5092108;28;20024;-53
2024/03/20 03:25:06;;;;;;;13.25;8.05;;;;;;;;;;5092231;28;20052;-57
2024/03/20 03:27:32;;;;;;;13.15;7.78;;;;;;;;;;5092594;28;20028;-53
2024/03/20 03:29:58;;;;;;;13.23;7.72;;;;;;;;;;5092377;28;20089;-55
2024/03/20 03:32:24;;;;;;;13.27;7.93;;;;;;;;;;5073788;28;20122;-52
2024/03/20 03:34:50;;;;;;;13.15;7.70;;;;;;;;;;5074109;28;20405;-56
2024/03/20 03:37:16;;;;;;;13.10;7.70;;;;;;;;;;5074433;28;20016;-58
2024/03/20 03:39:42;;;;;;;13.30;7.90;;;;;;;;;;5092286;28;20024;-58
2024/03/20 03:42:08;;;;;;;13.13;7.75;;;;;;;;;;5091465;28;20032;-56
2024/03/20 03:44:34;;;;;;;12.98;7.60;;;;;;;;;;5090792;28;20040;-54
2024/03/20 03:47:00;;;;;;;13.30;7.80;;;;;;;;;;5091114;28;20117;-54
2024/03/20 03:49:26;;;;;;;13.00;7.70;;;;;;;;;;5091045;28;20040;-56
2024/03/20 03:51:52;;;;;;;13.13;7.70;;;;;;;;;;5090952;28;20390;-52
2024/03/20 03:54:19;;;;;;;13.30;7.90;;;;;;;;;;5090447;28;20044;-54
2024/03/20 03:56:45;;;;;;;13.38;7.90;;;;;;;;;;5090858;28;20028;-54
2024/03/20 03:59:11;;;;;;;13.32;7.90;;;;;;;;;;5090835;28;20020;-53
2024/03/20 04:01:37;;;;;;;13.35;7.93;;;;;;;;;;5090940;28;20095;-55
2024/03/20 04:04:03;;;;;;;13.05;7.68;;;;;;;;;;5090648;28;20024;-50
2024/03/20 04:06:29;;;;;;;12.82;7.47;;;;;;;;;;5090150;28;20075;-53
2024/03/20 04:08:55;;;;;;;13.27;7.88;;;;;;;;;;5091588;28;20044;-54
2024/03/20 04:11:23;;;;;;;13.20;7.90;;;;;;;;;;5072348;28;20028;-57
2024/03/20 04:13:50;;;;;;;13.35;7.97;;;;;;;;;;5090043;28;20371;-58
2024/03/20 04:16:15;;;;;;;13.15;7.80;;;;;;;;;;5090567;28;20020;-55
2024/03/20 04:18:42;;;;;;;13.35;8.00;;;;;;;;;;5090556;28;20389;-52
2024/03/20 04:21:08;;;;;;;13.07;7.65;;;;;;;;;;5089994;28;20493;-51
2024/03/20 04:23:34;;;;;;;13.15;7.78;;;;;;;;;;5089708;28;20028;-55
2024/03/20 04:26:00;;;;;;;13.23;7.80;;;;;;;;;;5090123;28;20462;-54
2024/03/20 04:28:26;;;;;;;13.35;8.15;;;;;;;;;;5071939;28;20124;-55
2024/03/20 04:30:52;;;;;;;13.40;8.07;;;;;;;;;;5090002;28;20039;-54
2024/03/20 04:33:18;;;;;;;13.38;7.95;;;;;;;;;;5089370;28;20027;-54
2024/03/20 04:35:44;;;;;;;13.10;7.82;;;;;;;;;;5090028;28;20025;-53
2024/03/20 04:38:10;;;;;;;13.23;7.78;;;;;;;;;;5089863;28;20017;-54
2024/03/20 04:40:37;;;;;;;13.05;7.72;;;;;;;;;;5089951;28;20028;-54
2024/03/20 04:43:03;;;;;;;13.48;8.20;;;;;;;;;;5071305;28;20028;-56
2024/03/20 04:45:29;;;;;;;12.68;7.43;;;;;;;;;;5090205;28;20377;-53
2024/03/20 04:47:55;;;;;;;13.30;7.90;;;;;;;;;;5090232;28;20028;-54
2024/03/20 04:50:21;;;;;;;13.07;7.60;;;;;;;;;;5089957;28;20468;-52
2024/03/20 04:52:47;;;;;;;13.07;7.63;;;;;;;;;;5071228;28;20020;-55
2024/03/20 04:55:13;;;;;;;13.40;8.00;;;;;;;;;;5090208;28;20467;-54
2024/03/20 04:57:39;;;;;;;13.27;7.90;;;;;;;;;;5071942;28;20166;-56
2024/03/20 05:00:15;;;;;;;13.13;7.78;;;;;;;;;;5089587;28;20636;-57
2024/03/20 05:02:42;;;;;;;13.38;8.07;;;;;;;;;;5089119;28;20032;-54
2024/03/20 05:05:09;;;;;;;13.45;8.30;;;;;;;;;;5071837;28;20445;-53
2024/03/20 05:07:35;;;;;;;13.27;7.93;;;;;;;;;;5071646;28;20024;-52
2024/03/20 05:10:01;;;;;;;13.35;7.90;;;;;;;;;;5071464;28;20078;-50
2024/03/20 05:12:27;;;;;;;13.23;7.80;;;;;;;;;;5089101;28;20024;-54
2024/03/20 05:14:53;;;;;;;13.35;7.93;;;;;;;;;;5089918;28;20133;-52
2024/03/20 05:17:19;;;;;;;13.45;8.13;;;;;;;;;;5072646;28;20118;-55
2024/03/20 05:19:45;;;;;;;13.38;8.20;;;;;;;;;;5093750;28;20024;-51
2024/03/20 05:22:11;;;;;;;13.43;8.25;;;;;;;;;;5093893;28;20370;-53
2024/03/20 05:24:37;;;;;;;13.50;8.40;;;;;;;;;;5093936;28;20016;-55
2024/03/20 05:27:06;;;;;;;13.50;8.40;;;;;;;;;;5095056;28;20035;-59
2024/03/20 05:29:32;;;;;;;;;;;;;;;;;;5076851;28;20051;-52
2024/03/20 05:31:58;;;;;;;13.32;8.00;;;;;;;;;;5093052;28;19974;-54
2024/03/20 05:34:23;;;;;;;13.38;7.93;;;;;;;;;;5093217;28;20086;-53
2024/03/20 05:36:49;;;;;;;13.38;8.00;;;;;;;;;;5093619;28;20496;-56
2024/03/20 05:39:15;;;;;;;13.07;7.68;;;;;;;;;;5075452;28;20081;-57
2024/03/20 05:41:41;;;;;;;13.30;7.80;;;;;;;;;;5075207;28;20027;-55
2024/03/20 05:44:07;;;;;;;13.45;8.20;;;;;;;;;;5092634;28;20424;-53
2024/03/20 05:46:34;;;;;;;13.30;8.00;;;;;;;;;;5093405;28;20099;-55
2024/03/20 05:49:00;;;;;;;13.30;7.80;;;;;;;;;;5093065;28;20474;-56
2024/03/20 05:51:26;;;;;;;13.25;7.80;;;;;;;;;;5092638;28;20036;-54
2024/03/20 05:53:52;;;;;;;13.27;7.90;;;;;;;;;;5092653;28;20367;-56
2024/03/20 05:56:18;;;;;;;13.40;8.02;;;;;;;;;;5093023;28;20474;-55
2024/03/20 05:58:45;;;;;;;13.40;8.15;;;;;;;;;;5092732;28;20180;-55
2024/03/20 06:01:10;;;;;;;13.40;8.25;;;;;;;;;;5074297;28;20516;-57
2024/03/20 06:03:37;;;;;;;13.48;8.27;;;;;;;;;;5073745;28;20035;-52
2024/03/20 06:06:03;;;;;;;13.45;8.20;;;;;;;;;;5092578;28;20428;-55
2024/03/20 06:08:29;;;;;;;13.45;8.20;;;;;;;;;;5074468;28;20028;-53
2024/03/20 06:10:57;;;;;;;13.35;8.07;;;;;;;;;;5092512;28;20631;-56
2024/03/20 06:13:23;;;;;;;13.32;7.90;;;;;;;;;;5091839;28;20024;-55
2024/03/20 06:15:49;;;;;;;13.23;7.97;;;;;;;;;;5069146;28;20029;-53
2024/03/20 06:18:15;;;;;;;13.40;8.00;;;;;;;;;;5072032;28;20016;-52
2024/03/20 06:20:41;;;;;;;13.20;7.70;;;;;;;;;;5054341;28;20036;-51
2024/03/20 06:23:07;;;;;;;12.90;7.50;;;;;;;;;;5071397;28;20096;-53
2024/03/20 06:25:33;;;;;;;12.65;7.35;;;;;;;;;;5071982;28;20436;-57
2024/03/20 06:28:00;;;;;;;12.93;7.53;;;;;;;;;;5071690;28;20028;-57
2024/03/20 06:30:26;;;;;;;13.38;8.02;;;;;;;;;;5085176;22;20107;-51
2024/03/20 06:32:53;;;;;;;13.13;7.68;;;;;;;;;;5070405;28;20041;-57
2024/03/20 06:35:19;;;;;;;13.15;7.70;;;;;;;;;;5071065;28;20060;-58
2024/03/20 06:37:45;;;;;;;12.88;7.55;;;;;;;;;;5053106;28;20040;-58
2024/03/20 06:40:12;;;;;;;13.18;7.72;;;;;;;;;;5072193;28;20378;-58
2024/03/20 06:42:38;;;;;;;13.18;7.75;;;;;;;;;;5090306;28;20024;-60
2024/03/20 06:45:08;;;;;;;12.95;7.57;;;;;;;;;;5065184;28;20031;-57
2024/03/20 06:47:35;;;;;;;13.23;7.78;;;;;;;;;;5076766;28;20035;-58
2024/03/20 06:50:02;;;;;;;13.27;7.88;;;;;;;;;;5090623;28;20602;-56
2024/03/20 06:52:34;;;;;;;13.55;8.40;;;;;;;;;;5083840;28;20044;-55
2024/03/20 06:55:00;;;;;;;13.35;8.00;;;;;;;;;;5070328;28;20028;-58
2024/03/20 06:57:26;;;;;;;13.07;7.63;;;;;;;;;;5052443;28;20028;-55
2024/03/20 06:59:52;;;;;;;13.38;8.00;;;;;;;;;;5070558;28;20040;-53
2024/03/20 07:02:19;;;;;;;13.38;8.07;;;;;;;;;;5087049;28;20090;-56
2024/03/20 07:04:45;;;;;;;13.35;8.00;;;;;;;;;;5072181;28;20489;-55
2024/03/20 07:07:13;;;;;;;13.43;8.20;;;;;;;;;;5090329;28;20030;-55
2024/03/20 07:09:39;;;;;;;13.40;8.20;;;;;;;;;;5090385;28;20507;-53
2024/03/20 07:12:05;;;;;;;13.40;8.18;;;;;;;;;;5089632;28;20186;-55
2024/03/20 07:14:31;;;;;;;13.57;8.52;;;;;;;;;;5090007;28;20028;-57
2024/03/20 07:16:57;;;;;;;13.68;8.90;;;;;;;;;;5090428;28;20055;-57
2024/03/20 07:19:24;;;;;;;13.65;8.88;;;;;;;;;;5074513;28;20336;-56
2024/03/20 07:21:50;;;;;;;13.60;8.60;;;;;;;;;;5052119;28;20105;-56
2024/03/20 07:24:16;;;;;;;13.57;8.60;;;;;;;;;;5069991;28;20012;-57
2024/03/20 07:26:42;;;;;;;13.68;8.90;;;;;;;;;;5070268;28;20031;-53
2024/03/20 07:29:11;;;;;;;13.60;8.63;;;;;;;;;;5070539;28;20020;-57
2024/03/20 07:31:38;;;;;;;13.45;8.55;;;;;;;;;;5070036;28;20475;-52
2024/03/20 07:34:05;;;;;;;13.52;8.60;;;;;;;;;;5068692;28;20024;-56
2024/03/20 07:36:33;;;;;;;13.73;9.07;;;;;;;;;;5070123;28;20050;-57
2024/03/20 07:38:59;;;;;;;13.77;9.07;;;;;;;;;;5069593;28;20532;-56
2024/03/20 07:41:25;;;;;;;13.82;9.30;;;;;;;;;;5069508;28;20048;-56
2024/03/20 07:43:51;;;;;;;13.63;8.80;;;;;;;;;;5069392;28;20466;-57
2024/03/20 07:46:17;;;;;;;13.82;9.35;;;;;;;;;;5070366;28;20016;-56
2024/03/20 07:48:47;;;;;;;13.85;9.40;;;;;;;;;;5069905;28;20029;-56
2024/03/20 07:51:16;;;;;;;13.77;9.13;;;;;;;;;;5069983;28;20493;-57
2024/03/20 07:53:42;;;;;;;13.73;9.18;;;;;;;;;;5069323;28;20020;-54
2024/03/20 07:56:09;;;;;;;13.98;9.70;;;;;;;;;;5052355;28;20027;-54
2024/03/20 07:58:35;;;;;;;13.88;9.30;;;;;;;;;;5069852;28;20025;-53
2024/03/20 08:01:01;;;;;;;13.88;9.40;;;;;;;;;;5069791;28;20036;-57
2024/03/20 08:03:27;;;;;;;13.80;9.25;;;;;;;;;;5069041;28;20032;-55
2024/03/20 08:05:54;;;;;;;13.55;8.73;;;;;;;;;;5051707;28;20383;-57
2024/03/20 08:08:20;;;;;;;13.95;9.57;;;;;;;;;;5070189;28;20112;-57
2024/03/20 08:10:46;;;;;;;13.90;9.50;;;;;;;;;;5051809;28;20044;-55
2024/03/20 08:13:12;;;;;;;13.95;9.80;;;;;;;;;;5051138;28;20021;-55
2024/03/20 08:15:39;;;;;;;14.00;9.70;;;;;;;;;;5069818;28;20035;-57
2024/03/20 08:18:05;;;;;;;13.95;9.70;;;;;;;;;;5072114;28;20078;-59
2024/03/20 08:20:33;;;;;;;13.63;8.75;;;;;;;;;;5089523;28;20031;-54
2024/03/20 08:22:59;;;;;;;13.73;9.10;;;;;;;;;;5088956;28;20082;-57
2024/03/20 08:25:25;;;;;;;13.70;8.90;;;;;;;;;;5089242;28;20042;-58
2024/03/20 08:27:51;;;;;;;13.63;8.77;;;;;;;;;;5089698;28;20020;-58
2024/03/20 08:30:17;;;;;;;13.68;8.90;;;;;;;;;;5089709;28;20064;-56
2024/03/20 08:32:43;;;;;;;13.80;9.40;;;;;;;;;;5071043;28;20035;-54
2024/03/20 08:35:12;;;;;;;13.68;8.95;;;;;;;;;;5089626;28;20600;-53
2024/03/20 08:37:39;;;;;;;13.50;8.52;;;;;;;;;;5089709;28;20422;-53
2024/03/20 08:40:06;;;;;;;13.60;8.70;;;;;;;;;;5089930;28;20082;-52
2024/03/20 08:42:32;;;;;;;13.77;9.00;;;;;;;;;;5088609;28;20031;-54
2024/03/20 08:45:00;;;;;;;13.57;8.77;;;;;;;;;;5089509;28;20103;-56
2024/03/20 08:47:26;;;;;;;;;;;;;;;;;;5089720;28;20106;-54
2024/03/20 08:49:52;;;;;;;13.70;9.00;;;;;;;;;;5071173;28;19915;-54
2024/03/20 08:52:18;;;;;;;13.63;8.90;;;;;;;;;;5090065;28;20020;-52
2024/03/20 08:54:45;;;;;;;13.75;9.18;;;;;;;;;;5093324;28;20058;-56
2024/03/20 08:57:12;;;;;;;13.82;9.30;;;;;;;;;;5093494;28;20529;-55
2024/03/20 08:59:38;;;;;;;13.63;8.88;;;;;;;;;;5093467;28;20111;-53
2024/03/20 09:02:04;;;;;;;13.75;9.10;;;;;;;;;;5093353;28;20024;-56
2024/03/20 09:04:30;;;;;;;13.63;8.90;;;;;;;;;;5093083;28;20066;-54
2024/03/20 09:06:56;;;;;;;13.82;9.30;;;;;;;;;;5092855;28;20024;-55
2024/03/20 09:09:22;;;;;;;13.65;8.95;;;;;;;;;;5075402;28;20497;-52
2024/03/20 09:11:48;;;;;;;13.90;9.40;;;;;;;;;;5093354;28;20036;-54
2024/03/20 09:14:15;;;;;;;13.77;9.20;;;;;;;;;;5092782;28;20032;-57
2024/03/20 09:16:41;;;;;;;13.63;8.90;;;;;;;;;;5093400;28;20107;-55
2024/03/20 09:19:07;;;;;;;13.70;9.00;;;;;;;;;;5092783;28;20035;-53
2024/03/20 09:21:34;;;;;;;13.88;9.40;;;;;;;;;;5074930;28;20111;-52
2024/03/20 09:24:03;;;;;;;13.80;9.40;;;;;;;;;;5092385;28;20363;-50
2024/03/20 09:26:29;;;;;;;;;;;;;;;;;;5093466;28;20057;-56
2024/03/20 09:28:55;;;;;;;13.80;9.30;;;;;;;;;;5092808;28;20378;-55
2024/03/20 09:31:21;;;;;;;13.88;9.48;;;;;;;;;;5092069;28;20032;-55
2024/03/20 09:33:47;;;;;;;13.82;9.38;;;;;;;;;;5091905;28;20027;-53
2024/03/20 09:36:13;;;;;;;13.80;9.32;;;;;;;;;;5092595;28;20063;-53
2024/03/20 09:38:39;;;;;;;13.90;9.60;;;;;;;;;;5092334;28;20443;-53
2024/03/20 09:41:10;;;;;;;13.90;9.60;;;;;;;;;;5092578;28;20053;-56
2024/03/20 09:43:36;;;;;;;14.00;9.90;;;;;;;;;;5090610;28;20024;-55
2024/03/20 09:46:03;;;;;;;13.80;9.23;;;;;;;;;;5091772;28;20028;-51
2024/03/20 09:48:29;;;;;;;13.85;9.38;;;;;;;;;;5091928;28;20024;-55
2024/03/20 09:50:58;;;;;;;13.63;8.93;;;;;;;;;;5091708;28;20027;-54
2024/03/20 09:53:24;;;;;;;14.98;9.77;;;;;;;;;;5090395;28;20024;-52
2024/03/20 09:55:50;;;;;;;13.82;9.30;;;;;;;;;;5092160;28;20051;-55
2024/03/20 09:58:16;;;;;;;13.82;9.30;;;;;;;;;;5092268;28;20059;-52
2024/03/20 10:00:42;;;;;;;13.82;9.40;;;;;;;;;;5092186;28;20028;-56
2024/03/20 10:03:09;;;;;;;13.63;9.00;;;;;;;;;;5090945;28;20032;-54
2024/03/20 10:05:40;;;;;;;13.75;9.20;;;;;;;;;;5091296;28;20028;-52
2024/03/20 10:08:07;;;;;;;13.80;9.20;;;;;;;;;;5092132;28;20066;-53
2024/03/20 10:10:33;;;;;;;13.80;9.20;;;;;;;;;;5091227;28;20068;-54
2024/03/20 10:12:59;;;;;;;13.88;9.35;;;;;;;;;;5090714;28;20093;-54
2024/03/20 10:15:25;;;;;;;14.10;10.00;;;;;;;;;;5091787;28;20024;-53
2024/03/20 10:17:52;;;;;;;13.90;9.60;;;;;;;;;;5091888;28;20604;-54
2024/03/20 10:20:22;;;;;;;13.95;9.70;;;;;;;;;;5091774;28;20038;-54
2024/03/20 10:22:49;;;;;;;13.85;9.30;;;;;;;;;;5091077;28;20075;-54
2024/03/20 10:25:18;;;;;;;13.77;9.25;;;;;;;;;;5091899;28;20112;-53
2024/03/20 10:27:49;;;;;;;13.82;9.35;;;;;;;;;;5091407;28;20634;-57
2024/03/20 10:30:15;;;;;;;16.63;10.55;;;;;;;;;;5091694;28;20024;-56
2024/03/20 10:32:46;;;;;;;13.80;9.30;;;;;;;;;;5091067;28;20031;-55
2024/03/20 10:35:14;;;;;;;13.73;9.13;;;;;;;;;;5091152;28;20012;-56
2024/03/20 10:37:41;;;;;;;13.80;9.20;;;;;;;;;;5091795;28;20028;-54
2024/03/20 10:40:09;;;;;;;13.60;8.80;;;;;;;;;;5091661;28;20031;-52
2024/03/20 10:42:36;;;;;;;13.70;8.90;;;;;;;;;;5090856;28;20032;-55
2024/03/20 10:45:02;;;;;;;13.80;9.48;;;;;;;;;;5071304;28;20563;-56
2024/03/20 10:47:29;;;;;;;13.52;8.60;;;;;;;;;;5090991;28;20031;-54
2024/03/20 10:49:56;;;;;;;13.80;9.13;;;;;;;;;;5091346;28;20036;-57
2024/03/20 10:52:22;;;;;;;13.90;9.40;;;;;;;;;;5090992;28;20047;-54
2024/03/20 10:54:48;;;;;;;13.77;9.15;;;;;;;;;;5091022;28;20421;-53
2024/03/20 10:57:14;;;;;;;13.95;9.68;;;;;;;;;;5091139;28;20024;-49
2024/03/20 10:59:40;;;;;;;14.00;9.80;;;;;;;;;;5091351;28;20028;-54
2024/03/20 11:02:13;;;;;;;13.90;9.52;;;;;;;;;;5090799;28;20032;-55
2024/03/20 11:04:41;;;;;;;13.63;8.70;;;;;;;;;;5090449;28;20032;-56
2024/03/20 11:07:23;;;;;;;13.70;9.00;;;;;;;;;;5072659;28;20464;-51
2024/03/20 11:09:50;;;;;;;13.65;8.98;;;;;;;;;;5090655;28;20281;-52
2024/03/20 11:12:29;;;;;;;13.90;9.55;;;;;;;;;;5090532;28;20020;-50
2024/03/20 11:14:59;;;;;;;13.95;9.43;;;;;;;;;;5072149;28;20486;-56
2024/03/20 11:17:26;;;;;;;13.90;9.50;;;;;;;;;;5090978;28;20039;-56
2024/03/20 11:19:52;;;;;;;13.93;9.63;;;;;;;;;;5092154;28;20102;-53
2024/03/20 11:22:24;;;;;;;13.90;9.50;;;;;;;;;;5090080;28;20039;-52
2024/03/20 11:24:54;;;;;;;13.95;9.70;;;;;;;;;;5090900;28;20139;-56
2024/03/20 11:27:22;;;;;;;13.90;9.70;;;;;;;;;;5090557;28;20042;-53
2024/03/20 11:29:48;;;;;;;;;;;;;;;;;;5089217;28;20150;-55
2024/03/20 11:32:15;;;;;;;14.20;10.35;;;;;;;;;;5089347;28;19987;-53
2024/03/20 11:34:44;;;;;;;14.15;10.25;;;;;;;;;;5089447;28;20024;-55
2024/03/20 11:37:13;;;;;;;14.20;10.40;;;;;;;;;;5089714;28;20024;-53
2024/03/20 11:39:40;;;;;;;14.10;10.20;;;;;;;;;;5089942;28;20024;-54
2024/03/20 11:42:06;;;;;;;18.25;11.77;;;;;;;;;;5089486;28;20058;-56
2024/03/20 11:44:32;;;;;;;14.20;10.27;;;;;;;;;;5086424;28;20050;-55
2024/03/20 11:46:58;;;;;;;14.25;10.55;;;;;;;;;;5073027;28;20441;-53
2024/03/20 11:49:27;;;;;;;14.35;10.80;;;;;;;;;;5069545;28;20037;-52
2024/03/20 11:51:53;;;;;;;14.10;10.18;;;;;;;;;;5069572;28;20023;-53
2024/03/20 11:54:20;;;;;;;15.85;12.88;;;;;;;;;;5051447;28;20025;-53
2024/03/20 11:56:50;;;;;;;14.13;10.27;;;;;;;;;;5069976;28;20031;-54
2024/03/20 11:59:19;;;;;;;15.48;12.35;;;;;;;;;;5069577;28;20028;-54
2024/03/20 12:01:53;;;;;;;14.25;10.70;;;;;;;;;;5069513;28;20024;-55
2024/03/20 12:04:19;;;;;;;14.10;10.10;;;;;;;;;;5069235;28;20029;-51
2024/03/20 12:06:45;;;;;;;14.20;10.50;;;;;;;;;;5069515;28;20120;-53
2024/03/20 12:09:14;;;;;;;14.27;10.52;;;;;;;;;;5069285;28;20059;-50
2024/03/20 12:11:40;;;;;;;14.25;10.52;;;;;;;;;;5069145;28;20017;-54
2024/03/20 12:14:08;;;;;;;14.40;10.98;;;;;;;;;;5068814;28;20020;-53
2024/03/20 12:16:34;;;;;;;14.60;11.30;;;;;;;;;;5069524;28;20028;-51
2024/03/20 12:19:00;;;;;;;14.40;10.90;;;;;;;;;;5069204;28;20016;-56
2024/03/20 12:21:27;;;;;;;14.40;10.90;;;;;;;;;;5068950;28;20032;-55
2024/03/20 12:23:53;;;;;;;14.80;11.65;;;;;;;;;;5068848;28;20032;-52
2024/03/20 12:26:22;;;;;;;15.27;12.70;;;;;;;;;;5069200;28;20060;-56
2024/03/20 12:28:48;;;;;;;14.70;11.70;;;;;;;;;;5069186;28;20028;-53
2024/03/20 12:31:21;;;;;;;14.30;10.90;;;;;;;;;;5082859;22;20063;-51
2024/03/20 12:33:49;;;;;;;14.15;10.35;;;;;;;;;;5069159;28;20475;-49
2024/03/20 12:36:16;;;;;;;18.88;11.88;;;;;;;;;;5069736;28;20373;-48
2024/03/20 12:38:42;;;;;;;14.75;11.13;;;;;;;;;;5069904;28;20021;-55
2024/03/20 12:41:12;;;;;;;14.20;10.40;;;;;;;;;;5072864;28;20032;-52
2024/03/20 12:43:39;;;;;;;14.30;10.73;;;;;;;;;;5089320;28;20032;-48
2024/03/20 12:46:08;;;;;;;14.27;10.57;;;;;;;;;;5070927;28;20028;-56
2024/03/20 12:48:34;;;;;;;15.10;10.90;;;;;;;;;;5068554;28;20104;-52
2024/03/20 12:51:01;;;;;;;14.60;11.55;;;;;;;;;;5069309;28;20025;-54
2024/03/20 12:53:27;;;;;;;14.38;10.90;;;;;;;;;;5069157;28;20029;-52
2024/03/20 12:55:53;;;;;;;14.18;10.30;;;;;;;;;;5051540;28;20424;-51
2024/03/20 12:58:20;;;;;;;14.20;10.43;;;;;;;;;;5069492;28;20090;-49
2024/03/20 13:00:47;;;;;;;14.45;11.13;;;;;;;;;;5069515;28;20020;-49
2024/03/20 13:03:17;;;;;;;14.27;10.52;;;;;;;;;;5068753;28;20486;-50
2024/03/20 13:05:47;;;;;;;14.30;10.73;;;;;;;;;;5069256;28;20032;-55
2024/03/20 13:08:15;;;;;;;16.08;12.85;;;;;;;;;;5069036;28;20032;-50
2024/03/20 13:10:41;;;;;;;15.60;12.02;;;;;;;;;;5069095;28;20020;-50
2024/03/20 13:13:17;;;;;;;14.60;11.43;;;;;;;;;;5068622;28;20026;-56
2024/03/20 13:15:44;;;;;;;14.60;11.38;;;;;;;;;;5069298;28;20049;-51
2024/03/20 13:18:26;;;;;;;14.40;10.80;;;;;;;;;;5068745;28;20048;-54
2024/03/20 13:20:52;;;;;;;14.48;11.10;;;;;;;;;;5069810;28;20021;-48
2024/03/20 13:23:18;;;;;;;14.40;10.90;;;;;;;;;;5051519;28;20036;-49
2024/03/20 13:25:45;;;;;;;14.52;11.30;;;;;;;;;;5069419;28;20028;-48
2024/03/20 13:28:13;;;;;;;14.45;11.05;;;;;;;;;;5069820;28;20479;-49
2024/03/20 13:30:42;;;;;;;14.70;11.27;;;;;;;;;;5069247;28;20025;-48
2024/03/20 13:33:10;;;;;;;14.25;10.50;;;;;;;;;;5067711;28;20086;-49
2024/03/20 13:35:36;;;;;;;14.30;10.68;;;;;;;;;;5050806;28;20063;-49
2024/03/20 13:38:08;;;;;;;14.70;11.60;;;;;;;;;;5069873;28;20537;-51
2024/03/20 13:40:36;;;;;;;14.00;9.95;;;;;;;;;;5072896;28;20032;-48
2024/03/20 13:45:51;;;;;;;14.38;10.68;;;;;;;;;;5073031;28;20546;-50
2024/03/20 13:48:18;;;;;;;14.18;10.27;;;;;;;;;;5072965;28;20050;-50
2024/03/20 13:50:44;;;;;;;14.10;10.15;;;;;;;;;;5072664;28;20021;-52
2024/03/20 13:53:10;;;;;;;14.20;10.45;;;;;;;;;;5072199;28;20059;-53
2024/03/20 13:55:36;;;;;;;14.10;10.18;;;;;;;;;;5071740;28;20040;-51
2024/03/20 13:58:03;;;;;;;14.25;10.60;;;;;;;;;;5072807;28;20025;-48
2024/03/20 14:00:29;;;;;;;14.18;10.30;;;;;;;;;;5073239;28;20042;-55
2024/03/20 14:02:56;;;;;;;14.30;10.45;;;;;;;;;;5071856;28;20032;-54
2024/03/20 14:05:22;;;;;;;14.38;10.88;;;;;;;;;;5072916;28;20029;-51
2024/03/20 14:07:48;;;;;;;14.70;11.63;;;;;;;;;;5072791;28;20030;-51
2024/03/20 14:10:15;;;;;;;14.35;10.90;;;;;;;;;;5072571;28;20434;-49
2024/03/20 14:12:41;;;;;;;14.25;10.50;;;;;;;;;;5072079;28;20078;-47
2024/03/20 14:15:14;;;;;;;16.15;11.93;;;;;;;;;;5054222;28;20028;-52
2024/03/20 14:17:41;;;;;;;15.55;13.15;;;;;;;;;;5054422;28;20078;-51
2024/03/20 14:20:20;;;;;;;14.32;10.80;;;;;;;;;;5072534;28;20403;-52
2024/03/20 14:22:46;;;;;;;14.25;10.43;;;;;;;;;;5053694;28;20490;-54
2024/03/20 14:25:15;;;;;;;14.30;10.80;;;;;;;;;;5072102;28;20044;-51
2024/03/20 14:27:42;;;;;;;14.30;10.68;;;;;;;;;;5072490;28;20052;-48
2024/03/20 14:30:08;;;;;;;14.93;11.73;;;;;;;;;;5072077;28;20036;-49